Список аэропортов
Фактическая погода:

26 апреля, 12:00
Температура: +20°C (+19.9*)
Ветер: восточный 6 м/с
Давление: *763 мм
Без существ. явл.
Время (МСК)Темп. СВетерВлажностьДавлениеОблачностьОсадки
09:00+19СВ, 7 м/с56%1015 гПаоблачносл. дождь
10:00+19СВ, 8 м/с60%1015 гПаоблачнодождь
11:00+19СВ, 7 м/с65%1016 гПаоблачнодождь
12:00+19СВ, 7 м/с73%1016 гПаоблачнодождь
13:00+19СВ, 9 м/с77%1017 гПаоблачносл. дождь
14:00+19СВ, 9 м/с75%1017 гПаоблачносл. дождь
15:00+20СВ, 7 м/с70%1017 гПаоблачно
16:00+21СВ, 8 м/с63%1017 гПаоблачно
17:00+21СВ, 8 м/с56%1016 гПаоблачно
18:00+21СВ, 8 м/с51%1016 гПаоблачно
19:00+21В, 8 м/с47%1016 гПаоблачно
20:00+20В, 7 м/с46%1016 гПас прояснениями
21:00+19В, 5 м/с50%1016 гПас прояснениями
22:00+17ЮВ, 3 м/с64%1016 гПас прояснениями
23:00+17Ю, 2 м/с69%1017 гПас прояснениями
27 апреля
00:00+16З, 2 м/с67%1017 гПаоблачно
01:00+17З, 2 м/с59%1017 гПаоблачно
02:00+17З, 2 м/с55%1017 гПаоблачно
03:00+16ЮЗ, 2 м/с58%1016 гПамалооблачно
04:00+15ЮЗ, 2 м/с63%1016 гПамалооблачно
05:00+15З, 1 м/с64%1015 гПас прояснениями
06:00+15З, 2 м/с61%1014 гПаоблачно
07:00+15З, 2 м/с63%1014 гПас прояснениями
08:00+15ЮЗ, 2 м/с66%1014 гПас прояснениями
09:00+15З, 2 м/с68%1014 гПаясно
10:00+17ЮЗ, 3 м/с59%1014 гПамалооблачно
11:00+19ЮЗ, 4 м/с58%1013 гПамалооблачно
12:00+22ЮЗ, 5 м/с56%1013 гПаясно
13:00+24ЮЗ, 5 м/с53%1013 гПаясно
14:00+25ЮЗ, 6 м/с50%1012 гПамалооблачно
15:00+25Ю, 7 м/с52%1012 гПамалооблачносл. дождь
16:00+25Ю, 7 м/с53%1011 гПамалооблачнодождь
17:00+24Ю, 8 м/с52%1011 гПас прояснениями
18:00+24Ю, 8 м/с53%1011 гПаоблачно
19:00+23Ю, 7 м/с54%1011 гПамалооблачно
20:00+22Ю, 7 м/с57%1011 гПас прояснениями
21:00+21Ю, 4 м/с62%1011 гПаоблачносл. дождь
22:00+19ЮВ, 3 м/с70%1011 гПамалооблачно
23:00+18ЮВ, 2 м/с74%1011 гПаоблачно
28 апреля
00:00+18В, 1 м/с78%1012 гПаясно
01:00+17ЮВ, 2 м/с82%1012 гПамалооблачно
02:00+17ЮВ, 2 м/с85%1011 гПас прояснениями
03:00+16ЮВ, 2 м/с88%1011 гПас прояснениямисл. дождь
04:00+16ЮВ, 2 м/с92%1011 гПас прояснениямидождь
05:00+15ЮВ, 1 м/с94%1010 гПас прояснениями
06:00+15ЮВ, 1 м/с96%1010 гПаоблачно
07:00+15СВ, 1 м/с96%1010 гПаоблачно
08:00+15СВ, 3 м/с96%1010 гПаоблачно
09:00+15СВ, 4 м/с95%1010 гПаоблачно